Accueil
METAR-TAF:

METAR-TAF

Aéroports :

Tsushima, Japon

latitude: 34-17N, longitude: 129-20E, altitude: 63 m

Observation

Le bulletin a été fait il y a 1 heure et 9 minutes, à 11:00 UTC
Vent 7 kt de ouest, variant entre ouest/sud-ouest et nord/nord-ouest
Température 8°C
Humidité 39%
Pression 1022 hPa
Visibilité 10 km ou plus
Quelques nuages à une hauteur de 4000 ft

METAR: RJDT 201100Z 27007KT 240V340 9999 FEW040 08/M05 Q1022

Heure: 21:09 (12:09 UTC)


TAF: absent

Observations et prévisions météorologiques de plus de 4000 aéroports (messages METAR et TAF).

Les stations disponibles sont représentées par des disques jaunes et rouges sur la carte.

Passer la souris dessus pour voir le nom de la station.

Cliquer dessus pour voir les observations et prévisions météorologiques.

Pour changer de carte: cliquez sur les boutons verts avec une croix noire pour zoomer, sur le bouton vert avec un tiret pour effectuer un zoom arrière, ou sur les flèches vertes pour les cartes adjacentes.


METAR-TAF: